sensor_id;sensor_type;location;lat;lon;timestamp;temperature;humidity
33023;DHT22;19390;51.460;5.710;2023-02-21T00:00:31;8.60;99.90
33023;DHT22;19390;51.460;5.710;2023-02-21T00:03:15;8.60;99.90
33023;DHT22;19390;51.460;5.710;2023-02-21T00:05:59;8.60;99.90
33023;DHT22;19390;51.460;5.710;2023-02-21T00:08:43;8.60;99.90
33023;DHT22;19390;51.460;5.710;2023-02-21T00:11:27;8.60;99.90
33023;DHT22;19390;51.460;5.710;2023-02-21T00:14:11;8.60;99.90
33023;DHT22;19390;51.460;5.710;2023-02-21T00:17:09;8.60;99.90
33023;DHT22;19390;51.460;5.710;2023-02-21T00:19:54;8.60;99.90
33023;DHT22;19390;51.460;5.710;2023-02-21T00:22:38;8.60;99.90
33023;DHT22;19390;51.460;5.710;2023-02-21T00:25:25;8.60;99.90
33023;DHT22;19390;51.460;5.710;2023-02-21T00:28:09;8.60;99.90
33023;DHT22;19390;51.460;5.710;2023-02-21T00:30:53;8.60;99.90
33023;DHT22;19390;51.460;5.710;2023-02-21T00:33:37;8.50;99.90
33023;DHT22;19390;51.460;5.710;2023-02-21T00:36:21;8.50;99.90
33023;DHT22;19390;51.460;5.710;2023-02-21T00:39:05;8.50;99.90
33023;DHT22;19390;51.460;5.710;2023-02-21T00:41:49;8.50;99.90
33023;DHT22;19390;51.460;5.710;2023-02-21T00:44:34;8.50;99.90
33023;DHT22;19390;51.460;5.710;2023-02-21T00:47:18;8.50;99.90
33023;DHT22;19390;51.460;5.710;2023-02-21T00:50:02;8.50;99.90
33023;DHT22;19390;51.460;5.710;2023-02-21T00:52:52;8.50;99.90
33023;DHT22;19390;51.460;5.710;2023-02-21T00:55:36;8.50;99.90
33023;DHT22;19390;51.460;5.710;2023-02-21T00:58:21;8.50;99.90
33023;DHT22;19390;51.460;5.710;2023-02-21T01:01:05;8.50;99.90
33023;DHT22;19390;51.460;5.710;2023-02-21T01:03:54;8.50;99.90
33023;DHT22;19390;51.460;5.710;2023-02-21T01:06:40;8.50;99.90
33023;DHT22;19390;51.460;5.710;2023-02-21T01:09:28;8.50;99.90
33023;DHT22;19390;51.460;5.710;2023-02-21T01:12:13;8.50;99.90
33023;DHT22;19390;51.460;5.710;2023-02-21T01:14:57;8.50;99.90
33023;DHT22;19390;51.460;5.710;2023-02-21T01:17:42;8.50;99.90
33023;DHT22;19390;51.460;5.710;2023-02-21T01:20:26;8.40;99.90
33023;DHT22;19390;51.460;5.710;2023-02-21T01:23:10;8.40;99.90
33023;DHT22;19390;51.460;5.710;2023-02-21T01:25:55;8.40;99.90
33023;DHT22;19390;51.460;5.710;2023-02-21T01:28:39;8.40;99.90
33023;DHT22;19390;51.460;5.710;2023-02-21T01:31:24;8.40;99.90
33023;DHT22;19390;51.460;5.710;2023-02-21T01:34:08;8.40;99.90
33023;DHT22;19390;51.460;5.710;2023-02-21T01:36:53;8.40;99.90
33023;DHT22;19390;51.460;5.710;2023-02-21T01:39:41;8.40;99.90
33023;DHT22;19390;51.460;5.710;2023-02-21T01:42:25;8.40;99.90
33023;DHT22;19390;51.460;5.710;2023-02-21T01:48:15;8.40;99.90
33023;DHT22;19390;51.460;5.710;2023-02-21T01:51:02;8.40;99.90
33023;DHT22;19390;51.460;5.710;2023-02-21T01:53:47;8.40;99.90
33023;DHT22;19390;51.460;5.710;2023-02-21T01:56:32;8.40;99.90
33023;DHT22;19390;51.460;5.710;2023-02-21T01:59:17;8.40;99.90
33023;DHT22;19390;51.460;5.710;2023-02-21T02:02:09;8.40;99.90
33023;DHT22;19390;51.460;5.710;2023-02-21T02:04:56;8.40;99.90
33023;DHT22;19390;51.460;5.710;2023-02-21T02:07:41;8.40;99.90
33023;DHT22;19390;51.460;5.710;2023-02-21T02:10:26;8.40;99.90
33023;DHT22;19390;51.460;5.710;2023-02-21T02:16:07;8.40;99.90
33023;DHT22;19390;51.460;5.710;2023-02-21T02:22:20;8.40;99.90
33023;DHT22;19390;51.460;5.710;2023-02-21T02:39:28;8.40;99.90
33023;DHT22;19390;51.460;5.710;2023-02-21T02:41:59;8.40;99.90
33023;DHT22;19390;51.460;5.710;2023-02-21T02:44:38;8.40;99.90
33023;DHT22;19390;51.460;5.710;2023-02-21T02:47:24;8.50;99.90
33023;DHT22;19390;51.460;5.710;2023-02-21T02:49:53;8.40;99.90
33023;DHT22;19390;51.460;5.710;2023-02-21T02:52:20;8.50;99.90
33023;DHT22;19390;51.460;5.710;2023-02-21T02:54:58;8.50;99.90
33023;DHT22;19390;51.460;5.710;2023-02-21T02:57:24;8.50;99.90
33023;DHT22;19390;51.460;5.710;2023-02-21T02:59:50;8.50;99.90
33023;DHT22;19390;51.460;5.710;2023-02-21T03:05:42;8.50;99.90
33023;DHT22;19390;51.460;5.710;2023-02-21T03:11:24;8.50;99.90
33023;DHT22;19390;51.460;5.710;2023-02-21T03:14:15;8.50;99.90
33023;DHT22;19390;51.460;5.710;2023-02-21T03:16:47;8.50;99.90
33023;DHT22;19390;51.460;5.710;2023-02-21T03:19:19;8.50;99.90
33023;DHT22;19390;51.460;5.710;2023-02-21T03:21:49;8.50;99.90
33023;DHT22;19390;51.460;5.710;2023-02-21T03:24:17;8.50;99.90
33023;DHT22;19390;51.460;5.710;2023-02-21T03:26:47;8.50;99.90
33023;DHT22;19390;51.460;5.710;2023-02-21T03:29:15;8.50;99.90
33023;DHT22;19390;51.460;5.710;2023-02-21T03:31:51;8.50;99.90
33023;DHT22;19390;51.460;5.710;2023-02-21T03:34:19;8.50;99.90
33023;DHT22;19390;51.460;5.710;2023-02-21T03:36:46;8.50;99.90
33023;DHT22;19390;51.460;5.710;2023-02-21T03:39:13;8.50;99.90
33023;DHT22;19390;51.460;5.710;2023-02-21T03:41:39;8.50;99.90
33023;DHT22;19390;51.460;5.710;2023-02-21T03:44:11;8.50;99.90
33023;DHT22;19390;51.460;5.710;2023-02-21T03:46:37;8.60;99.90
33023;DHT22;19390;51.460;5.710;2023-02-21T03:49:03;8.60;99.90
33023;DHT22;19390;51.460;5.710;2023-02-21T03:51:29;8.50;99.90
33023;DHT22;19390;51.460;5.710;2023-02-21T03:53:55;8.60;99.90
33023;DHT22;19390;51.460;5.710;2023-02-21T03:56:21;8.50;99.90
33023;DHT22;19390;51.460;5.710;2023-02-21T03:58:47;8.60;99.90
33023;DHT22;19390;51.460;5.710;2023-02-21T04:01:14;8.60;99.90
33023;DHT22;19390;51.460;5.710;2023-02-21T04:03:40;8.60;99.90
33023;DHT22;19390;51.460;5.710;2023-02-21T04:06:21;8.60;99.90
33023;DHT22;19390;51.460;5.710;2023-02-21T04:11:57;8.60;99.90
33023;DHT22;19390;51.460;5.710;2023-02-21T04:14:23;8.60;99.90
33023;DHT22;19390;51.460;5.710;2023-02-21T04:16:50;8.60;99.90
33023;DHT22;19390;51.460;5.710;2023-02-21T04:19:16;8.60;99.90
33023;DHT22;19390;51.460;5.710;2023-02-21T04:21:42;8.70;99.90
33023;DHT22;19390;51.460;5.710;2023-02-21T04:24:08;8.60;99.90
33023;DHT22;19390;51.460;5.710;2023-02-21T04:26:34;8.70;99.90
33023;DHT22;19390;51.460;5.710;2023-02-21T04:29:00;8.70;99.90
33023;DHT22;19390;51.460;5.710;2023-02-21T04:31:26;8.70;99.90
33023;DHT22;19390;51.460;5.710;2023-02-21T04:33:56;8.70;99.90
33023;DHT22;19390;51.460;5.710;2023-02-21T04:36:21;8.70;99.90
33023;DHT22;19390;51.460;5.710;2023-02-21T04:38:49;8.70;99.90
33023;DHT22;19390;51.460;5.710;2023-02-21T04:41:16;8.70;99.90
33023;DHT22;19390;51.460;5.710;2023-02-21T04:43:42;8.70;99.90
33023;DHT22;19390;51.460;5.710;2023-02-21T04:46:09;8.70;99.90
33023;DHT22;19390;51.460;5.710;2023-02-21T04:48:36;8.70;99.90
33023;DHT22;19390;51.460;5.710;2023-02-21T04:51:12;8.80;99.90
33023;DHT22;19390;51.460;5.710;2023-02-21T04:53:40;8.80;99.90
33023;DHT22;19390;51.460;5.710;2023-02-21T04:56:06;8.80;99.90
33023;DHT22;19390;51.460;5.710;2023-02-21T04:58:32;8.80;99.90
33023;DHT22;19390;51.460;5.710;2023-02-21T05:00:58;8.80;99.90
33023;DHT22;19390;51.460;5.710;2023-02-21T05:03:24;8.80;99.90
33023;DHT22;19390;51.460;5.710;2023-02-21T05:05:50;8.80;99.90
33023;DHT22;19390;51.460;5.710;2023-02-21T05:08:16;8.80;99.90
33023;DHT22;19390;51.460;5.710;2023-02-21T05:10:42;8.80;99.90
33023;DHT22;19390;51.460;5.710;2023-02-21T05:13:08;8.80;99.90
33023;DHT22;19390;51.460;5.710;2023-02-21T05:15:40;8.80;99.90
33023;DHT22;19390;51.460;5.710;2023-02-21T05:18:06;8.80;99.90
33023;DHT22;19390;51.460;5.710;2023-02-21T05:20:32;8.80;99.90
33023;DHT22;19390;51.460;5.710;2023-02-21T05:22:58;8.80;99.90
33023;DHT22;19390;51.460;5.710;2023-02-21T05:25:24;8.80;99.90
33023;DHT22;19390;51.460;5.710;2023-02-21T05:27:51;8.80;99.90
33023;DHT22;19390;51.460;5.710;2023-02-21T05:30:19;8.90;99.90
33023;DHT22;19390;51.460;5.710;2023-02-21T05:32:46;8.80;99.90
33023;DHT22;19390;51.460;5.710;2023-02-21T05:35:14;8.80;99.90
33023;DHT22;19390;51.460;5.710;2023-02-21T05:37:39;8.80;99.90
33023;DHT22;19390;51.460;5.710;2023-02-21T05:40:05;8.90;99.90
33023;DHT22;19390;51.460;5.710;2023-02-21T05:42:31;8.90;99.90
33023;DHT22;19390;51.460;5.710;2023-02-21T05:44:58;8.90;99.90
33023;DHT22;19390;51.460;5.710;2023-02-21T05:47:24;8.80;99.90
33023;DHT22;19390;51.460;5.710;2023-02-21T05:49:49;8.90;99.90
33023;DHT22;19390;51.460;5.710;2023-02-21T05:52:16;8.80;99.90
33023;DHT22;19390;51.460;5.710;2023-02-21T05:54:47;8.80;99.90
33023;DHT22;19390;51.460;5.710;2023-02-21T05:57:15;8.80;99.90
33023;DHT22;19390;51.460;5.710;2023-02-21T05:59:41;8.80;99.90
33023;DHT22;19390;51.460;5.710;2023-02-21T06:02:06;8.80;99.90
33023;DHT22;19390;51.460;5.710;2023-02-21T06:04:32;8.70;99.90
33023;DHT22;19390;51.460;5.710;2023-02-21T06:06:59;8.80;99.90
33023;DHT22;19390;51.460;5.710;2023-02-21T06:09:25;8.70;99.90
33023;DHT22;19390;51.460;5.710;2023-02-21T06:11:54;8.80;99.90
33023;DHT22;19390;51.460;5.710;2023-02-21T06:14:21;8.80;99.90
33023;DHT22;19390;51.460;5.710;2023-02-21T06:16:47;8.80;99.90
33023;DHT22;19390;51.460;5.710;2023-02-21T06:19:17;8.70;99.90
33023;DHT22;19390;51.460;5.710;2023-02-21T06:21:44;8.70;99.90
33023;DHT22;19390;51.460;5.710;2023-02-21T06:24:11;8.80;99.90
33023;DHT22;19390;51.460;5.710;2023-02-21T06:26:37;8.80;99.90
33023;DHT22;19390;51.460;5.710;2023-02-21T06:29:04;8.80;99.90
33023;DHT22;19390;51.460;5.710;2023-02-21T06:31:30;8.70;99.90
33023;DHT22;19390;51.460;5.710;2023-02-21T06:33:56;8.70;99.90
33023;DHT22;19390;51.460;5.710;2023-02-21T06:36:25;8.70;99.90
33023;DHT22;19390;51.460;5.710;2023-02-21T06:38:53;8.70;99.90
33023;DHT22;19390;51.460;5.710;2023-02-21T06:41:23;8.70;99.90
33023;DHT22;19390;51.460;5.710;2023-02-21T06:43:50;8.70;99.90
33023;DHT22;19390;51.460;5.710;2023-02-21T06:46:17;8.70;99.90
33023;DHT22;19390;51.460;5.710;2023-02-21T06:48:43;8.70;99.90
33023;DHT22;19390;51.460;5.710;2023-02-21T06:51:09;8.70;99.90
33023;DHT22;19390;51.460;5.710;2023-02-21T06:53:36;8.70;99.90
33023;DHT22;19390;51.460;5.710;2023-02-21T06:56:03;8.70;99.90
33023;DHT22;19390;51.460;5.710;2023-02-21T06:58:29;8.80;99.90
33023;DHT22;19390;51.460;5.710;2023-02-21T07:00:55;8.80;99.90
33023;DHT22;19390;51.460;5.710;2023-02-21T07:03:21;8.80;99.90
33023;DHT22;19390;51.460;5.710;2023-02-21T07:05:46;8.70;99.90
33023;DHT22;19390;51.460;5.710;2023-02-21T07:08:12;8.90;99.90
33023;DHT22;19390;51.460;5.710;2023-02-21T07:10:38;8.80;99.90
33023;DHT22;19390;51.460;5.710;2023-02-21T07:13:04;8.80;99.90
33023;DHT22;19390;51.460;5.710;2023-02-21T07:15:30;8.80;99.90
33023;DHT22;19390;51.460;5.710;2023-02-21T07:17:55;8.80;99.90
33023;DHT22;19390;51.460;5.710;2023-02-21T07:20:21;8.80;99.90
33023;DHT22;19390;51.460;5.710;2023-02-21T07:22:47;8.80;99.90
33023;DHT22;19390;51.460;5.710;2023-02-21T07:25:17;8.80;99.90
33023;DHT22;19390;51.460;5.710;2023-02-21T07:27:48;8.80;99.90
33023;DHT22;19390;51.460;5.710;2023-02-21T07:30:15;8.70;99.90
33023;DHT22;19390;51.460;5.710;2023-02-21T07:32:41;8.70;99.90
33023;DHT22;19390;51.460;5.710;2023-02-21T07:35:07;8.80;99.90
33023;DHT22;19390;51.460;5.710;2023-02-21T07:37:33;8.80;99.90
33023;DHT22;19390;51.460;5.710;2023-02-21T07:39:59;8.80;99.90
33023;DHT22;19390;51.460;5.710;2023-02-21T07:42:24;8.80;99.90
33023;DHT22;19390;51.460;5.710;2023-02-21T07:44:57;8.80;99.90
33023;DHT22;19390;51.460;5.710;2023-02-21T07:47:24;8.80;99.90
33023;DHT22;19390;51.460;5.710;2023-02-21T07:49:50;8.80;99.90
33023;DHT22;19390;51.460;5.710;2023-02-21T07:52:19;8.80;99.90
33023;DHT22;19390;51.460;5.710;2023-02-21T07:54:45;8.80;99.90
33023;DHT22;19390;51.460;5.710;2023-02-21T07:57:11;8.80;99.90
33023;DHT22;19390;51.460;5.710;2023-02-21T07:59:44;8.70;99.90
33023;DHT22;19390;51.460;5.710;2023-02-21T08:02:13;8.70;99.90
33023;DHT22;19390;51.460;5.710;2023-02-21T08:04:51;8.80;99.90
33023;DHT22;19390;51.460;5.710;2023-02-21T08:07:16;8.80;99.90
33023;DHT22;19390;51.460;5.710;2023-02-21T08:09:42;8.80;99.90
33023;DHT22;19390;51.460;5.710;2023-02-21T08:12:08;8.80;99.90
33023;DHT22;19390;51.460;5.710;2023-02-21T08:14:33;8.80;99.90
33023;DHT22;19390;51.460;5.710;2023-02-21T08:16:59;8.80;99.90
33023;DHT22;19390;51.460;5.710;2023-02-21T08:19:24;8.90;99.90
33023;DHT22;19390;51.460;5.710;2023-02-21T08:21:50;8.80;99.90
33023;DHT22;19390;51.460;5.710;2023-02-21T08:24:21;8.80;99.90
33023;DHT22;19390;51.460;5.710;2023-02-21T08:26:47;8.80;99.90
33023;DHT22;19390;51.460;5.710;2023-02-21T08:29:13;8.80;99.90
33023;DHT22;19390;51.460;5.710;2023-02-21T08:31:40;8.80;99.90
33023;DHT22;19390;51.460;5.710;2023-02-21T08:34:07;8.90;99.90
33023;DHT22;19390;51.460;5.710;2023-02-21T08:36:34;8.80;99.90
33023;DHT22;19390;51.460;5.710;2023-02-21T08:39:00;8.80;99.90
33023;DHT22;19390;51.460;5.710;2023-02-21T08:41:40;8.90;99.90
33023;DHT22;19390;51.460;5.710;2023-02-21T08:44:07;8.90;99.90
33023;DHT22;19390;51.460;5.710;2023-02-21T08:46:33;8.90;99.90
33023;DHT22;19390;51.460;5.710;2023-02-21T08:48:59;8.90;99.90
33023;DHT22;19390;51.460;5.710;2023-02-21T08:51:27;8.90;99.90
33023;DHT22;19390;51.460;5.710;2023-02-21T08:53:53;8.90;99.90
33023;DHT22;19390;51.460;5.710;2023-02-21T08:56:26;8.90;99.90
33023;DHT22;19390;51.460;5.710;2023-02-21T08:58:52;9.00;99.90
33023;DHT22;19390;51.460;5.710;2023-02-21T09:01:20;9.00;99.90
33023;DHT22;19390;51.460;5.710;2023-02-21T09:03:46;9.00;99.90
33023;DHT22;19390;51.460;5.710;2023-02-21T09:06:12;8.90;99.90
33023;DHT22;19390;51.460;5.710;2023-02-21T09:08:38;9.00;99.90
33023;DHT22;19390;51.460;5.710;2023-02-21T09:11:06;9.00;99.90
33023;DHT22;19390;51.460;5.710;2023-02-21T09:13:32;9.00;99.90
33023;DHT22;19390;51.460;5.710;2023-02-21T09:15:59;9.00;99.90
33023;DHT22;19390;51.460;5.710;2023-02-21T09:18:27;9.00;99.90
33023;DHT22;19390;51.460;5.710;2023-02-21T09:20:53;9.00;99.90
33023;DHT22;19390;51.460;5.710;2023-02-21T09:23:26;9.00;99.90
33023;DHT22;19390;51.460;5.710;2023-02-21T09:25:52;9.00;99.90
33023;DHT22;19390;51.460;5.710;2023-02-21T09:28:18;9.00;99.90
33023;DHT22;19390;51.460;5.710;2023-02-21T09:30:45;9.10;99.90
33023;DHT22;19390;51.460;5.710;2023-02-21T09:33:11;9.10;99.90
33023;DHT22;19390;51.460;5.710;2023-02-21T09:35:37;9.00;99.90
33023;DHT22;19390;51.460;5.710;2023-02-21T09:38:03;9.00;99.90
33023;DHT22;19390;51.460;5.710;2023-02-21T09:45:55;8.90;99.90
33023;DHT22;19390;51.460;5.710;2023-02-21T09:48:23;8.90;99.90
33023;DHT22;19390;51.460;5.710;2023-02-21T09:50:54;8.80;99.90
33023;DHT22;19390;51.460;5.710;2023-02-21T09:53:30;9.00;99.90
33023;DHT22;19390;51.460;5.710;2023-02-21T09:55:59;8.80;99.90
33023;DHT22;19390;51.460;5.710;2023-02-21T09:58:28;8.80;99.90
33023;DHT22;19390;51.460;5.710;2023-02-21T10:00:59;8.80;99.90
33023;DHT22;19390;51.460;5.710;2023-02-21T10:03:58;8.80;99.90
33023;DHT22;19390;51.460;5.710;2023-02-21T10:06:41;8.90;99.90
33023;DHT22;19390;51.460;5.710;2023-02-21T10:17:18;9.00;99.90
33023;DHT22;19390;51.460;5.710;2023-02-21T10:19:49;8.90;99.90
33023;DHT22;19390;51.460;5.710;2023-02-21T10:22:23;8.90;99.90
33023;DHT22;19390;51.460;5.710;2023-02-21T10:24:50;9.00;99.90
33023;DHT22;19390;51.460;5.710;2023-02-21T10:27:21;8.90;99.90
33023;DHT22;19390;51.460;5.710;2023-02-21T10:32:21;8.80;99.90
33023;DHT22;19390;51.460;5.710;2023-02-21T10:34:47;9.00;99.90
33023;DHT22;19390;51.460;5.710;2023-02-21T10:37:39;8.80;99.90
33023;DHT22;19390;51.460;5.710;2023-02-21T10:40:14;9.00;99.90
33023;DHT22;19390;51.460;5.710;2023-02-21T10:42:44;8.90;99.90
33023;DHT22;19390;51.460;5.710;2023-02-21T10:45:13;9.00;99.90
33023;DHT22;19390;51.460;5.710;2023-02-21T10:47:52;9.00;99.90
33023;DHT22;19390;51.460;5.710;2023-02-21T10:50:41;9.00;99.90
33023;DHT22;19390;51.460;5.710;2023-02-21T10:53:09;9.10;99.90
33023;DHT22;19390;51.460;5.710;2023-02-21T10:58:31;8.80;99.90
33023;DHT22;19390;51.460;5.710;2023-02-21T11:01:19;8.70;99.90
33023;DHT22;19390;51.460;5.710;2023-02-21T11:03:49;8.70;99.90
33023;DHT22;19390;51.460;5.710;2023-02-21T11:06:35;8.70;99.90
33023;DHT22;19390;51.460;5.710;2023-02-21T11:09:17;8.60;99.90
33023;DHT22;19390;51.460;5.710;2023-02-21T11:11:48;8.70;99.90
33023;DHT22;19390;51.460;5.710;2023-02-21T11:14:24;8.70;99.90
33023;DHT22;19390;51.460;5.710;2023-02-21T11:17:05;8.70;99.90
33023;DHT22;19390;51.460;5.710;2023-02-21T11:22:09;8.90;99.90
33023;DHT22;19390;51.460;5.710;2023-02-21T11:24:50;9.00;99.90
33023;DHT22;19390;51.460;5.710;2023-02-21T11:27:16;8.90;99.90
33023;DHT22;19390;51.460;5.710;2023-02-21T11:29:44;9.00;99.90
33023;DHT22;19390;51.460;5.710;2023-02-21T11:32:20;9.00;99.90
33023;DHT22;19390;51.460;5.710;2023-02-21T11:34:47;9.00;99.90
33023;DHT22;19390;51.460;5.710;2023-02-21T11:37:15;8.80;99.90
33023;DHT22;19390;51.460;5.710;2023-02-21T11:39:41;8.90;99.90
33023;DHT22;19390;51.460;5.710;2023-02-21T11:42:30;8.90;99.90
33023;DHT22;19390;51.460;5.710;2023-02-21T11:45:18;8.90;99.90
33023;DHT22;19390;51.460;5.710;2023-02-21T11:48:01;9.00;99.90
33023;DHT22;19390;51.460;5.710;2023-02-21T11:50:33;9.10;99.90
33023;DHT22;19390;51.460;5.710;2023-02-21T11:53:19;8.90;99.90
33023;DHT22;19390;51.460;5.710;2023-02-21T11:58:48;8.70;99.90
33023;DHT22;19390;51.460;5.710;2023-02-21T12:01:25;8.70;99.90
33023;DHT22;19390;51.460;5.710;2023-02-21T12:04:16;9.00;99.90
33023;DHT22;19390;51.460;5.710;2023-02-21T12:07:07;9.00;99.90
33023;DHT22;19390;51.460;5.710;2023-02-21T12:12:28;8.90;99.90
33023;DHT22;19390;51.460;5.710;2023-02-21T12:25:46;9.30;99.90
33023;DHT22;19390;51.460;5.710;2023-02-21T12:28:39;8.90;99.90
33023;DHT22;19390;51.460;5.710;2023-02-21T12:31:31;9.00;99.90
33023;DHT22;19390;51.460;5.710;2023-02-21T12:34:23;9.30;99.90
33023;DHT22;19390;51.460;5.710;2023-02-21T12:36:58;9.30;99.90
33023;DHT22;19390;51.460;5.710;2023-02-21T12:39:49;9.20;99.90
33023;DHT22;19390;51.460;5.710;2023-02-21T12:42:56;9.20;99.90
33023;DHT22;19390;51.460;5.710;2023-02-21T12:50:54;9.20;99.90
33023;DHT22;19390;51.460;5.710;2023-02-21T12:53:28;9.20;99.90
33023;DHT22;19390;51.460;5.710;2023-02-21T12:55:59;9.00;99.90
33023;DHT22;19390;51.460;5.710;2023-02-21T12:58:32;9.10;99.90
33023;DHT22;19390;51.460;5.710;2023-02-21T13:01:24;9.00;99.90
33023;DHT22;19390;51.460;5.710;2023-02-21T13:04:15;9.30;99.90
33023;DHT22;19390;51.460;5.710;2023-02-21T13:06:49;9.20;99.90
33023;DHT22;19390;51.460;5.710;2023-02-21T13:12:11;9.10;99.90
33023;DHT22;19390;51.460;5.710;2023-02-21T13:14:52;9.00;99.90
33023;DHT22;19390;51.460;5.710;2023-02-21T13:17:20;9.30;99.90
33023;DHT22;19390;51.460;5.710;2023-02-21T13:20:13;9.20;99.90
33023;DHT22;19390;51.460;5.710;2023-02-21T13:22:44;9.00;99.90
33023;DHT22;19390;51.460;5.710;2023-02-21T13:27:50;8.80;99.90
33023;DHT22;19390;51.460;5.710;2023-02-21T13:30:45;8.80;99.90
33023;DHT22;19390;51.460;5.710;2023-02-21T13:33:22;8.60;99.90
33023;DHT22;19390;51.460;5.710;2023-02-21T13:35:49;8.60;99.90
33023;DHT22;19390;51.460;5.710;2023-02-21T13:38:17;8.50;99.90
33023;DHT22;19390;51.460;5.710;2023-02-21T13:40:51;8.60;99.90
33023;DHT22;19390;51.460;5.710;2023-02-21T13:43:31;8.60;99.90
33023;DHT22;19390;51.460;5.710;2023-02-21T14:03:27;8.60;99.90
33023;DHT22;19390;51.460;5.710;2023-02-21T14:10:55;8.40;99.90
33023;DHT22;19390;51.460;5.710;2023-02-21T14:17:00;8.20;99.90
33023;DHT22;19390;51.460;5.710;2023-02-21T14:22:11;8.20;99.90
33023;DHT22;19390;51.460;5.710;2023-02-21T14:24:47;8.20;99.90
33023;DHT22;19390;51.460;5.710;2023-02-21T14:32:52;8.50;99.90
33023;DHT22;19390;51.460;5.710;2023-02-21T14:35:21;8.50;99.90
33023;DHT22;19390;51.460;5.710;2023-02-21T14:38:20;8.40;99.90
33023;DHT22;19390;51.460;5.710;2023-02-21T14:57:13;8.40;99.90
33023;DHT22;19390;51.460;5.710;2023-02-21T15:00:07;8.30;99.90
33023;DHT22;19390;51.460;5.710;2023-02-21T15:05:27;8.20;99.90
33023;DHT22;19390;51.460;5.710;2023-02-21T15:08:20;8.30;99.90
33023;DHT22;19390;51.460;5.710;2023-02-21T15:10:49;8.20;99.90
33023;DHT22;19390;51.460;5.710;2023-02-21T15:13:42;8.10;99.90
33023;DHT22;19390;51.460;5.710;2023-02-21T15:16:09;8.20;99.90
33023;DHT22;19390;51.460;5.710;2023-02-21T15:18:41;8.20;99.90
33023;DHT22;19390;51.460;5.710;2023-02-21T15:21:20;8.30;99.90
33023;DHT22;19390;51.460;5.710;2023-02-21T15:23:49;8.20;99.90
33023;DHT22;19390;51.460;5.710;2023-02-21T15:26:26;8.30;99.90
33023;DHT22;19390;51.460;5.710;2023-02-21T15:31:36;8.10;99.90
33023;DHT22;19390;51.460;5.710;2023-02-21T15:34:03;8.10;99.90
33023;DHT22;19390;51.460;5.710;2023-02-21T15:36:29;8.10;99.90
33023;DHT22;19390;51.460;5.710;2023-02-21T15:39:28;8.10;99.90
33023;DHT22;19390;51.460;5.710;2023-02-21T15:41:55;8.10;99.90
33023;DHT22;19390;51.460;5.710;2023-02-21T15:44:30;8.20;99.90
33023;DHT22;19390;51.460;5.710;2023-02-21T15:47:03;7.90;99.90
33023;DHT22;19390;51.460;5.710;2023-02-21T15:49:36;8.00;99.90
33023;DHT22;19390;51.460;5.710;2023-02-21T15:52:03;8.00;99.90
33023;DHT22;19390;51.460;5.710;2023-02-21T15:54:31;8.20;99.90
33023;DHT22;19390;51.460;5.710;2023-02-21T15:59:27;8.30;99.90
33023;DHT22;19390;51.460;5.710;2023-02-21T16:04:45;8.30;99.90
33023;DHT22;19390;51.460;5.710;2023-02-21T16:07:35;8.40;99.90
33023;DHT22;19390;51.460;5.710;2023-02-21T16:10:10;8.20;99.90
33023;DHT22;19390;51.460;5.710;2023-02-21T16:12:43;8.20;99.90
33023;DHT22;19390;51.460;5.710;2023-02-21T16:15:24;8.30;99.90
33023;DHT22;19390;51.460;5.710;2023-02-21T16:17:59;8.10;99.90
33023;DHT22;19390;51.460;5.710;2023-02-21T16:20:35;8.30;99.90
33023;DHT22;19390;51.460;5.710;2023-02-21T16:23:31;8.10;99.90
33023;DHT22;19390;51.460;5.710;2023-02-21T16:28:38;7.90;99.90
33023;DHT22;19390;51.460;5.710;2023-02-21T16:31:14;7.90;99.90
33023;DHT22;19390;51.460;5.710;2023-02-21T16:33:40;7.80;99.90
33023;DHT22;19390;51.460;5.710;2023-02-21T16:36:09;8.10;99.90
33023;DHT22;19390;51.460;5.710;2023-02-21T16:38:40;8.20;99.90
33023;DHT22;19390;51.460;5.710;2023-02-21T16:41:11;8.40;99.90
33023;DHT22;19390;51.460;5.710;2023-02-21T16:43:37;8.50;99.90
33023;DHT22;19390;51.460;5.710;2023-02-21T16:46:03;8.40;99.90
33023;DHT22;19390;51.460;5.710;2023-02-21T16:48:29;8.50;99.90
33023;DHT22;19390;51.460;5.710;2023-02-21T16:50:59;8.80;99.90
33023;DHT22;19390;51.460;5.710;2023-02-21T16:53:27;9.40;99.90
33023;DHT22;19390;51.460;5.710;2023-02-21T16:55:54;9.50;99.90
33023;DHT22;19390;51.460;5.710;2023-02-21T16:58:24;9.40;99.90
33023;DHT22;19390;51.460;5.710;2023-02-21T17:00:53;9.50;99.90
33023;DHT22;19390;51.460;5.710;2023-02-21T17:03:20;9.50;99.90
33023;DHT22;19390;51.460;5.710;2023-02-21T17:05:46;9.50;99.90
33023;DHT22;19390;51.460;5.710;2023-02-21T17:08:12;8.70;99.90
33023;DHT22;19390;51.460;5.710;2023-02-21T17:10:38;8.60;99.90
33023;DHT22;19390;51.460;5.710;2023-02-21T17:13:04;9.40;99.90
33023;DHT22;19390;51.460;5.710;2023-02-21T17:15:30;9.50;99.90
33023;DHT22;19390;51.460;5.710;2023-02-21T17:17:59;9.40;99.90
33023;DHT22;19390;51.460;5.710;2023-02-21T17:20:25;9.30;99.90
33023;DHT22;19390;51.460;5.710;2023-02-21T17:22:52;8.40;99.90
33023;DHT22;19390;51.460;5.710;2023-02-21T17:25:19;7.80;99.90
33023;DHT22;19390;51.460;5.710;2023-02-21T17:27:45;7.70;99.90
33023;DHT22;19390;51.460;5.710;2023-02-21T17:30:11;7.60;99.90
33023;DHT22;19390;51.460;5.710;2023-02-21T17:32:38;7.60;99.90
33023;DHT22;19390;51.460;5.710;2023-02-21T17:35:04;7.60;99.90
33023;DHT22;19390;51.460;5.710;2023-02-21T17:37:30;7.60;99.90
33023;DHT22;19390;51.460;5.710;2023-02-21T17:39:55;7.60;99.90
33023;DHT22;19390;51.460;5.710;2023-02-21T17:42:22;7.50;99.90
33023;DHT22;19390;51.460;5.710;2023-02-21T17:44:48;7.50;99.90
33023;DHT22;19390;51.460;5.710;2023-02-21T17:47:21;7.50;99.90
33023;DHT22;19390;51.460;5.710;2023-02-21T17:49:48;7.60;99.90
33023;DHT22;19390;51.460;5.710;2023-02-21T17:52:15;7.50;99.90
33023;DHT22;19390;51.460;5.710;2023-02-21T17:54:41;7.50;99.90
33023;DHT22;19390;51.460;5.710;2023-02-21T17:57:07;7.50;99.90
33023;DHT22;19390;51.460;5.710;2023-02-21T17:59:34;7.50;99.90
33023;DHT22;19390;51.460;5.710;2023-02-21T18:02:01;7.50;99.90
33023;DHT22;19390;51.460;5.710;2023-02-21T18:04:27;7.50;99.90
33023;DHT22;19390;51.460;5.710;2023-02-21T18:06:53;7.50;99.90
33023;DHT22;19390;51.460;5.710;2023-02-21T18:09:19;7.40;99.90
33023;DHT22;19390;51.460;5.710;2023-02-21T18:11:52;7.50;99.90
33023;DHT22;19390;51.460;5.710;2023-02-21T18:14:20;7.50;99.90
33023;DHT22;19390;51.460;5.710;2023-02-21T18:16:46;7.50;99.90
33023;DHT22;19390;51.460;5.710;2023-02-21T18:19:13;7.40;99.90
33023;DHT22;19390;51.460;5.710;2023-02-21T18:21:39;7.50;99.90
33023;DHT22;19390;51.460;5.710;2023-02-21T18:24:10;7.50;99.90
33023;DHT22;19390;51.460;5.710;2023-02-21T18:26:36;7.50;99.90
33023;DHT22;19390;51.460;5.710;2023-02-21T18:29:04;7.50;99.90
33023;DHT22;19390;51.460;5.710;2023-02-21T18:31:30;7.50;99.90
33023;DHT22;19390;51.460;5.710;2023-02-21T18:33:56;7.50;99.90
33023;DHT22;19390;51.460;5.710;2023-02-21T18:36:22;7.50;99.90
33023;DHT22;19390;51.460;5.710;2023-02-21T18:38:47;7.60;99.90
33023;DHT22;19390;51.460;5.710;2023-02-21T18:41:17;7.50;99.90
33023;DHT22;19390;51.460;5.710;2023-02-21T18:43:44;7.50;99.90